Time,TemperatureF,DewpointF,PressureIn,WindDirection,WindDirectionDegrees,WindSpeedMPH,WindSpeedGustMPH,Humidity,HourlyPrecipIn,Conditions,Clouds,dailyrainin,SoftwareType,DateUTC
2013-02-03 00:03:00,30.7,25.0,30.03,NNW,336,0.0,0.0,79,0.00,CLR,,0.00,WeatherDisplay:10.37,2013-02-03 06:03:00,
2013-02-03 00:08:00,30.6,25.7,30.03,SW,224,2.3,0.0,82,0.00,CLR,,0.00,WeatherDisplay:10.37,2013-02-03 06:08:00,
2013-02-03 00:13:00,30.4,25.8,30.03,SW,224,0.0,0.0,83,0.00,CLR,,0.00,WeatherDisplay:10.37,2013-02-03 06:13:00,
2013-02-03 00:18:00,30.2,25.7,30.00,SW,224,0.0,0.0,83,0.00,CLR,,0.00,WeatherDisplay:10.37,2013-02-03 06:18:00,
2013-02-03 00:23:00,30.2,25.9,30.00,SW,224,0.0,0.0,84,0.00,CLR,,0.00,WeatherDisplay:10.37,2013-02-03 06:23:00,
2013-02-03 00:28:00,30.2,25.9,30.00,SW,224,0.0,0.0,84,0.00,CLR,,0.00,WeatherDisplay:10.37,2013-02-03 06:28:00,
2013-02-03 00:33:00,30.4,26.1,30.00,SW,224,0.0,0.0,84,0.00,CLR,,0.00,WeatherDisplay:10.37,2013-02-03 06:33:00,
2013-02-03 00:38:00,30.4,26.1,30.00,SW,224,0.0,0.0,84,0.00,CLR,,0.00,WeatherDisplay:10.37,2013-02-03 06:38:00,
2013-02-03 00:43:00,30.4,26.1,30.00,SW,224,0.0,0.0,84,0.00,CLR,,0.00,WeatherDisplay:10.37,2013-02-03 06:43:00,
2013-02-03 00:48:00,30.6,26.3,30.00,SW,224,0.0,0.0,84,0.00,CLR,,0.00,WeatherDisplay:10.37,2013-02-03 06:48:00,
2013-02-03 00:53:00,30.6,26.3,30.00,SW,224,0.0,0.0,84,0.00,CLR,,0.00,WeatherDisplay:10.37,2013-02-03 06:53:00,
2013-02-03 00:58:00,30.4,26.4,30.00,SW,224,0.0,0.0,85,0.00,CLR,,0.00,WeatherDisplay:10.37,2013-02-03 06:58:00,
2013-02-03 01:03:00,30.4,26.7,30.00,SW,224,0.0,0.0,86,0.00,CLR,,0.00,WeatherDisplay:10.37,2013-02-03 07:03:00,
2013-02-03 01:08:00,30.4,26.7,30.00,SW,224,0.0,0.0,86,0.00,CLR,,0.00,WeatherDisplay:10.37,2013-02-03 07:08:00,
2013-02-03 01:13:00,30.2,26.5,30.00,SW,223,0.0,0.0,86,0.00,CLR,,0.00,WeatherDisplay:10.37,2013-02-03 07:13:00,
2013-02-03 01:18:00,30.2,27.1,30.00,SW,224,0.0,0.0,88,0.00,CLR,,0.00,WeatherDisplay:10.37,2013-02-03 07:18:00,
2013-02-03 01:23:00,30.2,27.1,30.00,SW,224,0.0,0.0,88,0.00,CLR,,0.00,WeatherDisplay:10.37,2013-02-03 07:23:00,
2013-02-03 01:28:00,30.2,27.3,30.00,SW,223,0.0,0.0,89,0.00,CLR,,0.00,WeatherDisplay:10.37,2013-02-03 07:28:00,
2013-02-03 01:33:00,30.0,27.2,30.00,SW,223,0.0,0.0,89,0.00,CLR,,0.00,WeatherDisplay:10.37,2013-02-03 07:33:00,
2013-02-03 01:38:00,30.0,27.2,30.00,SW,223,0.0,0.0,89,0.00,CLR,,0.00,WeatherDisplay:10.37,2013-02-03 07:38:00,
2013-02-03 01:43:00,30.0,27.2,30.00,SW,223,0.0,0.0,89,0.00,CLR,,0.00,WeatherDisplay:10.37,2013-02-03 07:43:00,
2013-02-03 01:48:00,30.2,27.6,30.00,SW,224,0.0,0.0,90,0.00,CLR,,0.00,WeatherDisplay:10.37,2013-02-03 07:48:00,
2013-02-03 01:53:00,30.4,27.8,30.00,SW,223,0.0,0.0,90,0.00,CLR,,0.00,WeatherDisplay:10.37,2013-02-03 07:53:00,
2013-02-03 01:58:00,30.4,27.8,30.00,SW,223,0.0,0.0,90,0.00,CLR,,0.00,WeatherDisplay:10.37,2013-02-03 07:58:00,
2013-02-03 02:03:00,30.4,27.8,29.97,SW,224,2.3,0.0,90,0.00,CLR,,0.00,WeatherDisplay:10.37,2013-02-03 08:03:00,
2013-02-03 02:08:00,30.4,27.8,29.97,SW,223,2.3,0.0,90,0.00,CLR,,0.00,WeatherDisplay:10.37,2013-02-03 08:08:00,
2013-02-03 02:13:00,30.0,27.2,29.97,SW,223,0.0,0.0,89,0.00,CLR,,0.00,WeatherDisplay:10.37,2013-02-03 08:13:00,
2013-02-03 02:18:00,29.5,26.6,29.97,SW,224,0.0,0.0,89,0.00,CLR,,0.00,WeatherDisplay:10.37,2013-02-03 08:18:00,
2013-02-03 02:23:00,28.9,25.8,29.97,SW,223,0.0,0.0,88,0.00,CLR,,0.00,WeatherDisplay:10.37,2013-02-03 08:23:00,
2013-02-03 02:29:00,28.4,25.3,29.97,SW,223,0.0,0.0,88,0.00,CLR,,0.00,WeatherDisplay:10.37,2013-02-03 08:29:00,
2013-02-03 02:34:00,28.0,24.9,30.00,SW,223,0.0,0.0,88,0.00,CLR,,0.00,WeatherDisplay:10.37,2013-02-03 08:34:00,
2013-02-03 02:39:00,27.9,24.8,30.00,SW,223,0.0,0.0,88,0.00,CLR,,0.00,WeatherDisplay:10.37,2013-02-03 08:39:00,
2013-02-03 02:44:00,28.0,24.9,30.00,SW,223,0.0,0.0,88,0.00,CLR,,0.00,WeatherDisplay:10.37,2013-02-03 08:44:00,
2013-02-03 02:49:00,28.0,25.2,30.00,SW,223,0.0,0.0,89,0.00,CLR,,0.00,WeatherDisplay:10.37,2013-02-03 08:49:00,
2013-02-03 02:54:00,27.9,24.8,30.00,SW,224,0.0,0.0,88,0.00,CLR,,0.00,WeatherDisplay:10.37,2013-02-03 08:54:00,
2013-02-03 02:59:00,27.9,24.8,30.00,SW,223,0.0,0.0,88,0.00,CLR,,0.00,WeatherDisplay:10.37,2013-02-03 08:59:00,
2013-02-03 03:04:00,28.0,25.2,30.00,SW,223,0.0,0.0,89,0.00,CLR,,0.00,WeatherDisplay:10.37,2013-02-03 09:04:00,
2013-02-03 03:09:00,28.2,25.4,30.00,SW,223,0.0,0.0,89,0.00,CLR,,0.00,WeatherDisplay:10.37,2013-02-03 09:09:00,
2013-02-03 03:14:00,28.4,25.6,30.00,SW,223,0.0,0.0,89,0.00,CLR,,0.00,WeatherDisplay:10.37,2013-02-03 09:14:00,
2013-02-03 03:19:00,28.4,25.6,29.97,SW,223,2.3,0.0,89,0.00,CLR,,0.00,WeatherDisplay:10.37,2013-02-03 09:19:00,
2013-02-03 03:24:00,28.6,26.0,29.97,SW,223,2.3,0.0,90,0.00,CLR,,0.00,WeatherDisplay:10.37,2013-02-03 09:24:00,
2013-02-03 03:29:00,28.4,25.8,29.97,SW,223,3.5,0.0,90,0.00,CLR,,0.00,WeatherDisplay:10.37,2013-02-03 09:29:00,
2013-02-03 03:34:00,28.2,25.7,29.97,SW,223,3.6,0.0,90,0.00,CLR,,0.00,WeatherDisplay:10.37,2013-02-03 09:34:00,
2013-02-03 03:39:00,27.9,25.0,29.97,SW,224,0.0,0.0,89,0.00,CLR,,0.00,WeatherDisplay:10.37,2013-02-03 09:39:00,
2013-02-03 03:44:00,27.5,24.7,29.97,SW,224,3.5,0.0,89,0.00,CLR,,0.00,WeatherDisplay:10.37,2013-02-03 09:44:00,
2013-02-03 03:49:00,27.5,24.7,29.97,SW,224,3.5,3.5,89,0.00,CLR,,0.00,WeatherDisplay:10.37,2013-02-03 09:49:00,
2013-02-03 03:54:00,27.7,25.1,29.97,SW,224,2.7,0.0,90,0.00,CLR,,0.00,WeatherDisplay:10.37,2013-02-03 09:54:00,
2013-02-03 03:59:00,27.7,25.1,29.97,SW,224,5.4,5.4,90,0.00,CLR,,0.00,WeatherDisplay:10.37,2013-02-03 09:59:00,
2013-02-03 04:04:00,27.9,25.3,30.00,SW,224,3.5,0.0,90,0.00,CLR,,0.00,WeatherDisplay:10.37,2013-02-03 10:04:00,
2013-02-03 04:09:00,27.7,25.1,30.00,SW,224,5.8,5.8,90,0.00,CLR,,0.00,WeatherDisplay:10.37,2013-02-03 10:09:00,
2013-02-03 04:14:00,27.7,25.1,30.00,SW,224,5.8,0.0,90,0.00,CLR,,0.00,WeatherDisplay:10.37,2013-02-03 10:14:00,
2013-02-03 04:19:00,27.5,25.0,30.00,SW,224,3.5,0.0,90,0.00,CLR,,0.00,WeatherDisplay:10.37,2013-02-03 10:19:00,
2013-02-03 04:24:00,27.1,24.6,30.00,SW,224,5.4,0.0,90,0.00,CLR,,0.00,WeatherDisplay:10.37,2013-02-03 10:24:00,
2013-02-03 04:29:00,27.1,24.6,30.00,SW,224,4.6,4.6,90,0.00,CLR,,0.00,WeatherDisplay:10.37,2013-02-03 10:29:00,
2013-02-03 04:34:00,27.0,24.4,30.00,SW,224,3.5,3.5,90,0.00,CLR,,0.00,WeatherDisplay:10.37,2013-02-03 10:34:00,
2013-02-03 04:39:00,26.8,24.2,30.00,SW,224,4.6,4.6,90,0.00,CLR,,0.00,WeatherDisplay:10.37,2013-02-03 10:39:00,
2013-02-03 04:44:00,26.6,24.1,30.00,SW,224,3.6,3.6,90,0.00,CLR,,0.00,WeatherDisplay:10.37,2013-02-03 10:44:00,
2013-02-03 04:49:00,26.4,23.9,30.00,SW,224,2.3,2.3,90,0.00,CLR,,0.00,WeatherDisplay:10.37,2013-02-03 10:49:00,
2013-02-03 04:54:00,26.4,23.9,30.00,SW,224,4.1,4.1,90,0.00,CLR,,0.00,WeatherDisplay:10.37,2013-02-03 10:54:00,
2013-02-03 04:59:00,26.4,23.9,30.00,SW,224,4.6,4.6,90,0.00,CLR,,0.00,WeatherDisplay:10.37,2013-02-03 10:59:00,
2013-02-03 05:04:00,26.4,23.9,30.00,SW,224,5.4,5.4,90,0.00,CLR,,0.00,WeatherDisplay:10.37,2013-02-03 11:04:00,
2013-02-03 05:09:00,26.6,24.1,30.00,SW,224,5.4,5.4,90,0.00,CLR,,0.00,WeatherDisplay:10.37,2013-02-03 11:09:00,
2013-02-03 05:14:00,27.0,24.7,30.00,SW,224,4.6,4.6,91,0.00,CLR,,0.00,WeatherDisplay:10.37,2013-02-03 11:14:00,
2013-02-03 05:19:00,27.1,24.9,30.00,SW,224,3.5,0.0,91,0.00,CLR,,0.00,WeatherDisplay:10.37,2013-02-03 11:19:00,
2013-02-03 05:24:00,27.3,25.0,30.00,WNW,287,4.6,4.6,91,0.00,CLR,,0.00,WeatherDisplay:10.37,2013-02-03 11:24:00,
2013-02-03 05:29:00,27.5,25.2,30.00,WNW,292,2.3,0.0,91,0.00,CLR,,0.00,WeatherDisplay:10.37,2013-02-03 11:29:00,
2013-02-03 05:34:00,27.5,25.2,30.00,WNW,294,3.5,3.5,91,0.00,CLR,,0.00,WeatherDisplay:10.37,2013-02-03 11:34:00,
2013-02-03 05:39:00,27.7,25.4,30.00,WNW,301,5.8,5.8,91,0.00,CLR,,0.00,WeatherDisplay:10.37,2013-02-03 11:39:00,
2013-02-03 05:44:00,27.5,25.2,30.00,West,279,4.6,4.6,91,0.00,CLR,,0.00,WeatherDisplay:10.37,2013-02-03 11:44:00,
2013-02-03 05:49:00,27.7,25.4,30.00,NW,315,3.5,0.0,91,0.00,CLR,,0.00,WeatherDisplay:10.37,2013-02-03 11:49:00,
2013-02-03 05:54:00,27.9,25.6,30.00,WNW,282,4.6,4.6,91,0.00,CLR,,0.00,WeatherDisplay:10.37,2013-02-03 11:54:00,
2013-02-03 05:59:00,28.0,25.8,30.00,WNW,300,4.6,4.6,91,0.00,CLR,,0.00,WeatherDisplay:10.37,2013-02-03 11:59:00,
2013-02-03 06:04:00,27.9,25.6,30.00,NNW,337,10.4,10.4,91,0.00,CLR,,0.00,WeatherDisplay:10.37,2013-02-03 12:04:00,
2013-02-03 06:09:00,28.2,25.9,30.00,NW,321,8.1,8.1,91,0.00,CLR,,0.00,WeatherDisplay:10.37,2013-02-03 12:09:00,
2013-02-03 06:14:00,28.4,26.1,30.00,NW,306,6.9,6.9,91,0.00,CLR,,0.00,WeatherDisplay:10.37,2013-02-03 12:14:00,
2013-02-03 06:19:00,28.6,26.0,30.00,North,359,5.8,5.8,90,0.00,CLR,,0.00,WeatherDisplay:10.37,2013-02-03 12:19:00,
2013-02-03 06:24:00,28.8,26.2,30.00,WNW,301,8.1,8.1,90,0.00,CLR,,0.00,WeatherDisplay:10.37,2013-02-03 12:24:00,
2013-02-03 06:29:00,28.8,25.4,30.00,WNW,297,5.8,5.8,87,0.00,CLR,,0.00,WeatherDisplay:10.37,2013-02-03 12:29:00,
2013-02-03 06:34:00,28.9,25.3,30.00,NNW,344,5.4,5.4,86,0.00,CLR,,0.00,WeatherDisplay:10.37,2013-02-03 12:34:00,
2013-02-03 06:39:00,29.1,25.2,30.00,NNW,331,8.4,8.4,85,0.00,CLR,,0.00,WeatherDisplay:10.37,2013-02-03 12:39:00,
2013-02-03 06:44:00,29.1,24.6,30.00,NNW,348,9.2,9.2,83,0.00,CLR,,0.00,WeatherDisplay:10.37,2013-02-03 12:44:00,
2013-02-03 06:49:00,29.1,24.6,30.00,WNW,294,8.4,8.4,83,0.00,CLR,,0.00,WeatherDisplay:10.37,2013-02-03 12:49:00,
2013-02-03 06:54:00,29.1,23.7,30.00,North,357,5.8,5.9,80,0.00,CLR,,0.00,WeatherDisplay:10.37,2013-02-03 12:54:00,
2013-02-03 06:59:00,29.1,23.7,30.00,NNW,332,10.4,10.4,80,0.00,CLR,,0.00,WeatherDisplay:10.37,2013-02-03 12:59:00,
2013-02-03 07:04:00,29.1,23.4,30.00,NW,314,9.2,9.2,79,0.00,CLR,,0.00,WeatherDisplay:10.37,2013-02-03 13:04:00,
2013-02-03 07:09:00,29.1,23.4,30.00,WNW,296,10.4,10.4,79,0.00,CLR,,0.00,WeatherDisplay:10.37,2013-02-03 13:09:00,
2013-02-03 07:14:00,29.1,23.4,30.00,NW,318,14.2,14.2,79,0.00,CLR,,0.00,WeatherDisplay:10.37,2013-02-03 13:14:00,
2013-02-03 07:19:00,29.3,23.3,30.03,NNW,332,10.4,10.4,78,0.00,CLR,,0.00,WeatherDisplay:10.37,2013-02-03 13:19:00,
2013-02-03 07:24:00,29.3,22.7,30.03,WNW,284,13.8,13.8,76,0.00,CLR,,0.00,WeatherDisplay:10.37,2013-02-03 13:24:00,
2013-02-03 07:29:00,29.3,22.4,30.03,North,358,11.5,11.5,75,0.00,CLR,,0.00,WeatherDisplay:10.37,2013-02-03 13:29:00,
2013-02-03 07:34:00,29.5,22.2,30.03,NNW,334,11.5,11.5,74,0.00,CLR,,0.00,WeatherDisplay:10.37,2013-02-03 13:34:00,
2013-02-03 07:39:00,29.5,22.2,30.03,NW,323,16.0,16.0,74,0.00,CLR,,0.00,WeatherDisplay:10.37,2013-02-03 13:39:00,
2013-02-03 07:44:00,29.7,22.4,30.03,North,1,15.0,15.0,74,0.00,CLR,,0.00,WeatherDisplay:10.37,2013-02-03 13:44:00,
2013-02-03 07:49:00,29.7,21.7,30.03,North,3,12.0,12.0,72,0.00,CLR,,0.00,WeatherDisplay:10.37,2013-02-03 13:49:00,
2013-02-03 07:54:00,29.8,21.9,30.03,NW,318,17.3,17.3,72,0.00,CLR,,0.00,WeatherDisplay:10.37,2013-02-03 13:54:00,
2013-02-03 07:59:00,30.0,21.1,30.03,WNW,294,12.7,12.7,69,0.00,CLR,,0.00,WeatherDisplay:10.37,2013-02-03 13:59:00,
2013-02-03 08:04:00,30.0,21.1,30.03,NW,311,12.7,12.7,69,0.00,CLR,,0.00,WeatherDisplay:10.37,2013-02-03 14:04:00,
2013-02-03 08:09:00,30.2,20.6,30.03,NW,315,18.4,18.4,67,0.00,CLR,,0.00,WeatherDisplay:10.37,2013-02-03 14:09:00,
2013-02-03 08:14:00,30.4,20.7,30.03,North,5,15.0,15.0,67,0.00,CLR,,0.00,WeatherDisplay:10.37,2013-02-03 14:14:00,
2013-02-03 08:19:00,30.4,19.6,30.03,North,350,13.8,13.8,64,0.00,CLR,,0.00,WeatherDisplay:10.37,2013-02-03 14:19:00,
2013-02-03 08:24:00,30.7,20.0,30.03,North,360,10.6,10.6,64,0.00,CLR,,0.00,WeatherDisplay:10.37,2013-02-03 14:24:00,
2013-02-03 08:29:00,31.1,20.3,30.03,NW,323,13.8,13.8,64,0.00,CLR,,0.00,WeatherDisplay:10.37,2013-02-03 14:29:00,
2013-02-03 08:34:00,31.5,19.9,30.06,WNW,291,12.0,12.0,62,0.00,CLR,,0.00,WeatherDisplay:10.37,2013-02-03 14:34:00,
2013-02-03 08:39:00,31.3,19.8,30.06,WNW,292,15.0,15.0,62,0.00,CLR,,0.00,WeatherDisplay:10.37,2013-02-03 14:39:00,
2013-02-03 08:44:00,31.3,19.8,30.06,West,279,19.6,19.6,62,0.00,CLR,,0.00,WeatherDisplay:10.37,2013-02-03 14:44:00,
2013-02-03 08:49:00,31.5,19.9,30.06,WNW,282,10.4,10.4,62,0.00,CLR,,0.00,WeatherDisplay:10.37,2013-02-03 14:49:00,
2013-02-03 08:54:00,32.2,20.6,30.06,NNW,330,11.5,11.5,62,0.00,CLR,,0.00,WeatherDisplay:10.37,2013-02-03 14:54:00,
2013-02-03 08:59:00,32.7,20.7,30.06,NNW,338,11.5,11.5,61,0.00,CLR,,0.00,WeatherDisplay:10.37,2013-02-03 14:59:00,
2013-02-03 09:04:00,34.0,21.9,30.06,NW,324,16.1,16.1,61,0.00,CLR,,0.00,WeatherDisplay:10.37,2013-02-03 15:04:00,
2013-02-03 09:09:00,34.9,22.8,30.06,NW,323,11.5,11.5,61,0.00,CLR,,0.00,WeatherDisplay:10.37,2013-02-03 15:09:00,
2013-02-03 09:14:00,35.1,23.0,30.06,WNW,283,20.7,20.7,61,0.00,CLR,,0.00,WeatherDisplay:10.37,2013-02-03 15:14:00,
2013-02-03 09:19:00,34.2,22.1,30.06,NW,323,17.3,17.3,61,0.00,CLR,,0.00,WeatherDisplay:10.37,2013-02-03 15:19:00,
2013-02-03 09:24:00,34.3,22.3,30.06,North,360,12.7,12.7,61,0.00,CLR,,0.00,WeatherDisplay:10.37,2013-02-03 15:24:00,
2013-02-03 09:29:00,34.9,22.8,30.06,North,4,19.9,19.9,61,0.00,CLR,,0.00,WeatherDisplay:10.37,2013-02-03 15:29:00,
2013-02-03 09:34:00,34.5,22.4,30.09,NNW,346,18.4,18.4,61,0.00,CLR,,0.00,WeatherDisplay:10.37,2013-02-03 15:34:00,
2013-02-03 09:39:00,35.1,23.0,30.09,North,354,13.8,13.8,61,0.00,CLR,,0.00,WeatherDisplay:10.37,2013-02-03 15:39:00,
2013-02-03 09:44:00,35.1,23.0,30.09,NW,314,19.6,19.6,61,0.00,CLR,,0.00,WeatherDisplay:10.37,2013-02-03 15:44:00,
2013-02-03 09:49:00,34.9,22.8,30.09,NNW,343,16.1,16.1,61,0.00,CLR,,0.00,WeatherDisplay:10.37,2013-02-03 15:49:00,
2013-02-03 09:54:00,35.8,23.6,30.09,WNW,301,15.0,15.0,61,0.00,CLR,,0.00,WeatherDisplay:10.37,2013-02-03 15:54:00,
2013-02-03 09:59:00,35.4,23.3,30.09,NNE,23,15.0,15.0,61,0.00,CLR,,0.00,WeatherDisplay:10.37,2013-02-03 15:59:00,
2013-02-03 10:04:00,34.2,22.1,30.09,WNW,292,21.9,21.9,61,0.00,CLR,,0.00,WeatherDisplay:10.37,2013-02-03 16:04:00,
2013-02-03 10:09:00,34.3,22.3,30.09,NNE,12,15.0,15.0,61,0.00,CLR,,0.00,WeatherDisplay:10.37,2013-02-03 16:09:00,
2013-02-03 10:14:00,34.3,22.3,30.09,NW,304,15.0,15.0,61,0.00,CLR,,0.00,WeatherDisplay:10.37,2013-02-03 16:14:00,
2013-02-03 10:19:00,34.0,21.9,30.12,West,266,13.8,13.8,61,0.00,CLR,,0.00,WeatherDisplay:10.37,2013-02-03 16:19:00,
2013-02-03 10:24:00,33.8,21.8,30.12,WNW,283,13.8,13.8,61,0.00,CLR,,0.00,WeatherDisplay:10.37,2013-02-03 16:24:00,
2013-02-03 10:29:00,34.0,21.9,30.12,NNW,331,15.0,15.0,61,0.00,CLR,,0.00,WeatherDisplay:10.37,2013-02-03 16:29:00,
2013-02-03 10:34:00,34.2,22.1,30.12,NW,320,19.6,19.6,61,0.00,CLR,,0.00,WeatherDisplay:10.37,2013-02-03 16:34:00,
2013-02-03 10:39:00,34.0,21.9,30.12,NNW,345,19.6,19.6,61,0.00,CLR,,0.00,WeatherDisplay:10.37,2013-02-03 16:39:00,
2013-02-03 10:44:00,34.0,21.9,30.12,WNW,283,18.1,18.1,61,0.00,CLR,,0.00,WeatherDisplay:10.37,2013-02-03 16:44:00,
2013-02-03 10:49:00,34.5,22.4,30.15,North,349,18.4,18.4,61,0.00,CLR,,0.00,WeatherDisplay:10.37,2013-02-03 16:49:00,
2013-02-03 10:54:00,34.7,22.6,30.15,North,351,17.3,17.3,61,0.00,CLR,,0.00,WeatherDisplay:10.37,2013-02-03 16:54:00,
2013-02-03 10:59:00,35.8,23.6,30.15,North,7,12.7,12.9,61,0.00,CLR,,0.00,WeatherDisplay:10.37,2013-02-03 16:59:00,
2013-02-03 11:04:00,37.8,25.1,30.15,North,349,17.3,17.3,60,0.00,CLR,,0.00,WeatherDisplay:10.37,2013-02-03 17:04:00,
2013-02-03 11:09:00,40.1,27.3,30.15,NNW,341,16.1,16.1,60,0.00,CLR,,0.00,WeatherDisplay:10.37,2013-02-03 17:09:00,
2013-02-03 11:14:00,40.5,27.7,30.15,NNW,328,23.0,23.0,60,0.00,CLR,,0.00,WeatherDisplay:10.37,2013-02-03 17:14:00,
2013-02-03 11:19:00,39.9,27.1,30.15,NW,313,17.3,17.3,60,0.00,CLR,,0.00,WeatherDisplay:10.37,2013-02-03 17:19:00,
2013-02-03 11:24:00,40.3,27.5,30.15,NNW,334,17.3,17.3,60,0.00,CLR,,0.00,WeatherDisplay:10.37,2013-02-03 17:24:00,
2013-02-03 11:29:00,40.1,27.3,30.15,WNW,303,19.6,19.6,60,0.00,CLR,,0.00,WeatherDisplay:10.37,2013-02-03 17:29:00,
2013-02-03 11:34:00,40.3,27.5,30.15,NW,321,23.0,23.0,60,0.00,CLR,,0.00,WeatherDisplay:10.37,2013-02-03 17:34:00,
2013-02-03 11:39:00,40.6,27.8,30.15,NNW,327,11.1,11.1,60,0.00,CLR,,0.00,WeatherDisplay:10.37,2013-02-03 17:39:00,
2013-02-03 11:44:00,40.5,27.7,30.15,NW,309,12.7,12.7,60,0.00,CLR,,0.00,WeatherDisplay:10.37,2013-02-03 17:44:00,
2013-02-03 11:49:00,41.9,28.6,30.15,WNW,295,15.1,15.1,59,0.00,CLR,,0.00,WeatherDisplay:10.37,2013-02-03 17:49:00,
2013-02-03 11:54:00,42.1,28.8,30.15,NW,324,23.0,23.0,59,0.00,CLR,,0.00,WeatherDisplay:10.37,2013-02-03 17:54:00,
2013-02-03 11:59:00,41.5,28.7,30.15,NNW,342,17.2,17.2,60,0.00,CLR,,0.00,WeatherDisplay:10.37,2013-02-03 17:59:00,
2013-02-03 12:04:00,41.5,28.7,30.15,NNW,339,16.1,16.1,60,0.00,CLR,,0.00,WeatherDisplay:10.37,2013-02-03 18:04:00,
2013-02-03 12:09:00,41.9,28.6,30.15,WNW,296,12.7,12.7,59,0.00,CLR,,0.00,WeatherDisplay:10.37,2013-02-03 18:09:00,
2013-02-03 12:14:00,43.2,29.8,30.15,North,3,15.6,15.6,59,0.00,CLR,,0.00,WeatherDisplay:10.37,2013-02-03 18:14:00,
2013-02-03 12:19:00,42.6,29.3,30.15,North,356,9.2,9.2,59,0.00,CLR,,0.00,WeatherDisplay:10.37,2013-02-03 18:19:00,
2013-02-03 12:24:00,42.4,29.1,30.15,NW,319,18.1,18.1,59,0.00,CLR,,0.00,WeatherDisplay:10.37,2013-02-03 18:24:00,
2013-02-03 12:29:00,41.9,28.6,30.15,NNW,327,12.9,12.9,59,0.00,CLR,,0.00,WeatherDisplay:10.37,2013-02-03 18:29:00,
2013-02-03 12:34:00,42.1,28.8,30.15,NNW,329,13.8,13.8,59,0.00,CLR,,0.00,WeatherDisplay:10.37,2013-02-03 18:34:00,
2013-02-03 12:39:00,41.9,28.6,30.15,North,360,15.0,15.0,59,0.00,CLR,,0.00,WeatherDisplay:10.37,2013-02-03 18:39:00,
2013-02-03 12:44:00,43.0,29.6,30.15,North,352,9.2,9.2,59,0.00,CLR,,0.00,WeatherDisplay:10.37,2013-02-03 18:44:00,
2013-02-03 12:49:00,43.0,29.6,30.15,NNW,348,12.7,12.7,59,0.00,CLR,,0.00,WeatherDisplay:10.37,2013-02-03 18:49:00,
2013-02-03 12:54:00,43.2,29.8,30.15,West,280,16.1,16.1,59,0.00,CLR,,0.00,WeatherDisplay:10.37,2013-02-03 18:54:00,
2013-02-03 12:59:00,41.9,28.6,30.15,WNW,291,12.7,12.7,59,0.00,CLR,,0.00,WeatherDisplay:10.37,2013-02-03 18:59:00,
2013-02-03 13:04:00,41.4,28.5,30.15,North,6,13.8,13.8,60,0.00,CLR,,0.00,WeatherDisplay:10.37,2013-02-03 19:04:00,
2013-02-03 13:09:00,41.4,28.5,30.15,WNW,298,13.8,13.8,60,0.00,CLR,,0.00,WeatherDisplay:10.37,2013-02-03 19:09:00,
2013-02-03 13:14:00,41.4,28.5,30.15,North,357,11.5,11.5,60,0.00,CLR,,0.00,WeatherDisplay:10.37,2013-02-03 19:14:00,
2013-02-03 13:19:00,41.9,28.6,30.15,West,277,15.0,15.0,59,0.00,CLR,,0.00,WeatherDisplay:10.37,2013-02-03 19:19:00,
2013-02-03 13:24:00,41.9,28.6,30.15,North,6,15.0,15.0,59,0.00,CLR,,0.00,WeatherDisplay:10.37,2013-02-03 19:24:00,
2013-02-03 13:29:00,41.9,28.6,30.15,NW,325,13.8,13.8,59,0.00,CLR,,0.00,WeatherDisplay:10.37,2013-02-03 19:29:00,
2013-02-03 13:34:00,42.3,28.9,30.15,North,5,12.7,12.7,59,0.00,CLR,,0.00,WeatherDisplay:10.37,2013-02-03 19:34:00,
2013-02-03 13:39:00,42.4,29.1,30.15,NNW,327,10.4,10.4,59,0.00,CLR,,0.00,WeatherDisplay:10.37,2013-02-03 19:39:00,
2013-02-03 13:44:00,43.2,29.8,30.15,NNW,348,11.1,11.1,59,0.00,CLR,,0.00,WeatherDisplay:10.37,2013-02-03 19:44:00,
2013-02-03 13:50:00,43.7,30.3,30.12,West,261,11.5,11.5,59,0.00,CLR,,0.00,WeatherDisplay:10.37,2013-02-03 19:50:00,
2013-02-03 13:55:00,43.9,30.5,30.12,NW,318,12.7,12.7,59,0.00,CLR,,0.00,WeatherDisplay:10.37,2013-02-03 19:55:00,
2013-02-03 14:00:00,43.2,29.8,30.12,NW,304,10.4,10.4,59,0.00,CLR,,0.00,WeatherDisplay:10.37,2013-02-03 20:00:00,
2013-02-03 14:05:00,43.5,30.1,30.12,North,3,8.1,8.1,59,0.00,CLR,,0.00,WeatherDisplay:10.37,2013-02-03 20:05:00,
2013-02-03 14:10:00,43.2,29.8,30.12,West,275,12.7,12.7,59,0.00,CLR,,0.00,WeatherDisplay:10.37,2013-02-03 20:10:00,
2013-02-03 14:15:00,43.3,30.0,30.12,NNE,13,10.4,10.4,59,0.00,CLR,,0.00,WeatherDisplay:10.37,2013-02-03 20:15:00,
2013-02-03 14:20:00,42.8,29.5,30.12,North,354,12.7,12.7,59,0.00,CLR,,0.00,WeatherDisplay:10.37,2013-02-03 20:20:00,
2013-02-03 14:25:00,41.7,28.4,30.12,NW,310,11.5,11.5,59,0.00,CLR,,0.00,WeatherDisplay:10.37,2013-02-03 20:25:00,
2013-02-03 14:30:00,41.7,28.4,30.12,West,281,9.2,9.2,59,0.00,CLR,,0.00,WeatherDisplay:10.37,2013-02-03 20:30:00,
2013-02-03 14:35:00,43.2,29.8,30.12,NW,306,7.2,7.2,59,0.00,CLR,,0.00,WeatherDisplay:10.37,2013-02-03 20:35:00,
2013-02-03 14:40:00,43.7,30.3,30.12,NW,319,8.1,8.1,59,0.00,CLR,,0.00,WeatherDisplay:10.37,2013-02-03 20:40:00,
2013-02-03 14:45:00,43.7,30.3,30.12,WNW,283,8.1,8.1,59,0.00,CLR,,0.00,WeatherDisplay:10.37,2013-02-03 20:45:00,
2013-02-03 14:50:00,43.5,30.1,30.12,NNW,342,11.5,11.5,59,0.00,CLR,,0.00,WeatherDisplay:10.37,2013-02-03 20:50:00,
2013-02-03 14:55:00,42.3,28.9,30.12,WNW,292,13.8,13.8,59,0.00,CLR,,0.00,WeatherDisplay:10.37,2013-02-03 20:55:00,
2013-02-03 15:00:00,42.3,28.9,30.12,North,357,8.1,8.1,59,0.00,CLR,,0.00,WeatherDisplay:10.37,2013-02-03 21:00:00,
2013-02-03 15:05:00,43.2,29.8,30.12,North,358,6.3,6.3,59,0.00,CLR,,0.00,WeatherDisplay:10.37,2013-02-03 21:05:00,
2013-02-03 15:10:00,42.8,29.5,30.12,North,2,6.3,6.3,59,0.00,CLR,,0.00,WeatherDisplay:10.37,2013-02-03 21:10:00,
2013-02-03 15:15:00,41.9,28.6,30.12,NNW,342,8.1,8.1,59,0.00,CLR,,0.00,WeatherDisplay:10.37,2013-02-03 21:15:00,
2013-02-03 15:20:00,41.4,28.5,30.12,North,353,8.1,8.1,60,0.04,RA,,0.04,WeatherDisplay:10.37,2013-02-03 21:20:00,
2013-02-03 15:25:00,40.6,27.8,30.12,NNW,328,7.7,7.7,60,0.04,RA,,0.04,WeatherDisplay:10.37,2013-02-03 21:25:00,
2013-02-03 15:30:00,40.1,27.3,30.12,NNW,340,8.1,8.1,60,0.04,RA,,0.04,WeatherDisplay:10.37,2013-02-03 21:30:00,
2013-02-03 15:35:00,39.4,26.6,30.12,NNW,329,8.4,8.4,60,0.04,CLR,,0.04,WeatherDisplay:10.37,2013-02-03 21:35:00,
2013-02-03 15:40:00,39.0,26.3,30.12,NNW,348,5.8,5.8,60,0.04,CLR,,0.04,WeatherDisplay:10.37,2013-02-03 21:40:00,
2013-02-03 15:45:00,38.3,25.6,30.12,NW,321,8.1,8.1,60,0.04,CLR,,0.04,WeatherDisplay:10.37,2013-02-03 21:45:00,
2013-02-03 15:50:00,38.1,25.4,30.12,North,354,8.1,8.1,60,0.04,CLR,,0.04,WeatherDisplay:10.37,2013-02-03 21:50:00,
2013-02-03 15:55:00,37.8,25.1,30.12,NW,320,5.8,7.7,60,0.04,CLR,,0.04,WeatherDisplay:10.37,2013-02-03 21:55:00,
2013-02-03 16:00:00,37.8,25.1,30.12,North,357,5.9,5.9,60,0.04,CLR,,0.04,WeatherDisplay:10.37,2013-02-03 22:00:00,
2013-02-03 16:05:00,37.6,24.9,30.12,North,360,5.8,5.8,60,0.04,CLR,,0.04,WeatherDisplay:10.37,2013-02-03 22:05:00,
2013-02-03 16:10:00,37.4,24.8,30.12,NNW,342,5.8,7.2,60,0.04,CLR,,0.04,WeatherDisplay:10.37,2013-02-03 22:10:00,
2013-02-03 16:15:00,37.0,24.4,30.12,North,357,4.6,4.6,60,0.04,CLR,,0.04,WeatherDisplay:10.37,2013-02-03 22:15:00,
2013-02-03 16:20:00,36.0,23.8,30.12,North,358,5.8,5.8,61,0.00,CLR,,0.04,WeatherDisplay:10.37,2013-02-03 22:20:00,
2013-02-03 16:25:00,35.8,23.6,30.12,North,350,5.8,5.8,61,0.00,CLR,,0.04,WeatherDisplay:10.37,2013-02-03 22:25:00,
2013-02-03 16:30:00,35.6,23.5,30.12,NNW,343,5.8,5.8,61,0.00,CLR,,0.04,WeatherDisplay:10.37,2013-02-03 22:30:00,
2013-02-03 16:35:00,35.2,23.1,30.12,North,354,4.1,4.1,61,0.00,CLR,,0.04,WeatherDisplay:10.37,2013-02-03 22:35:00,
2013-02-03 16:40:00,35.1,23.0,30.12,North,356,5.8,5.8,61,0.00,CLR,,0.04,WeatherDisplay:10.37,2013-02-03 22:40:00,
2013-02-03 16:45:00,34.5,22.4,30.12,North,354,3.5,3.5,61,0.00,CLR,,0.04,WeatherDisplay:10.37,2013-02-03 22:45:00,
2013-02-03 16:50:00,33.8,21.8,30.09,NNW,338,5.8,5.8,61,0.00,CLR,,0.04,WeatherDisplay:10.37,2013-02-03 22:50:00,
2013-02-03 16:55:00,33.4,21.4,30.09,NNW,334,2.3,0.0,61,0.00,CLR,,0.04,WeatherDisplay:10.37,2013-02-03 22:55:00,
2013-02-03 17:00:00,33.3,21.3,30.09,NNW,339,3.6,3.6,61,0.00,CLR,,0.04,WeatherDisplay:10.37,2013-02-03 23:00:00,
2013-02-03 17:05:00,32.7,20.7,30.12,NNW,329,4.6,4.6,61,0.00,CLR,,0.04,WeatherDisplay:10.37,2013-02-03 23:05:00,
2013-02-03 17:10:00,32.5,21.0,30.12,NNW,329,2.7,0.0,62,0.00,CLR,,0.04,WeatherDisplay:10.37,2013-02-03 23:10:00,
2013-02-03 17:15:00,32.2,20.6,30.12,NNW,330,3.5,3.5,62,0.00,CLR,,0.04,WeatherDisplay:10.37,2013-02-03 23:15:00,
2013-02-03 17:20:00,31.8,20.3,30.12,NNW,330,2.7,2.7,62,0.00,CLR,,0.04,WeatherDisplay:10.37,2013-02-03 23:20:00,
2013-02-03 17:25:00,31.5,19.9,30.12,NNW,330,2.7,0.0,62,0.00,CLR,,0.04,WeatherDisplay:10.37,2013-02-03 23:25:00,
2013-02-03 17:30:00,31.1,19.6,30.12,NNW,330,0.0,0.0,62,0.00,CLR,,0.04,WeatherDisplay:10.37,2013-02-03 23:30:00,
2013-02-03 17:35:00,30.2,18.7,30.12,NNW,330,0.0,0.0,62,0.00,CLR,,0.04,WeatherDisplay:10.37,2013-02-03 23:35:00,
2013-02-03 17:40:00,29.5,18.1,30.12,NNW,330,0.0,0.0,62,0.00,CLR,,0.04,WeatherDisplay:10.37,2013-02-03 23:40:00,
2013-02-03 17:45:00,29.1,17.7,30.12,NNW,330,0.0,0.0,62,0.00,CLR,,0.04,WeatherDisplay:10.37,2013-02-03 23:45:00,
2013-02-03 17:50:00,28.8,17.4,30.09,NNW,330,0.0,0.0,62,0.00,CLR,,0.04,WeatherDisplay:10.37,2013-02-03 23:50:00,
2013-02-03 17:55:00,28.4,17.0,30.09,NNW,330,0.0,0.0,62,0.00,CLR,,0.04,WeatherDisplay:10.37,2013-02-03 23:55:00,
2013-02-03 18:00:00,28.2,16.9,30.09,NNW,330,0.0,0.0,62,0.00,CLR,,0.04,WeatherDisplay:10.37,2013-02-04 00:00:00,
2013-02-03 18:05:00,28.0,16.7,30.09,NNW,330,0.0,0.0,62,0.00,CLR,,0.04,WeatherDisplay:10.37,2013-02-04 00:05:00,
2013-02-03 18:10:00,27.5,16.2,30.09,NNW,330,0.0,0.0,62,0.00,CLR,,0.04,WeatherDisplay:10.37,2013-02-04 00:10:00,
2013-02-03 18:15:00,27.3,16.0,30.09,NNW,330,0.0,0.0,62,0.00,CLR,,0.04,WeatherDisplay:10.37,2013-02-04 00:15:00,
2013-02-03 18:20:00,27.1,15.8,30.09,NNW,330,0.0,0.0,62,0.00,CLR,,0.04,WeatherDisplay:10.37,2013-02-04 00:20:00,
2013-02-03 18:25:00,27.0,15.7,30.09,NNW,330,0.0,0.0,62,0.00,CLR,,0.04,WeatherDisplay:10.37,2013-02-04 00:25:00,
2013-02-03 18:30:00,27.0,15.7,30.09,NNW,330,0.0,0.0,62,0.00,CLR,,0.04,WeatherDisplay:10.37,2013-02-04 00:30:00,
2013-02-03 18:35:00,26.8,15.5,30.09,NNW,330,0.0,0.0,62,0.00,CLR,,0.04,WeatherDisplay:10.37,2013-02-04 00:35:00,
2013-02-03 18:40:00,26.6,15.3,30.09,NNW,333,0.0,0.0,62,0.00,CLR,,0.04,WeatherDisplay:10.37,2013-02-04 00:40:00,
2013-02-03 18:45:00,26.4,15.2,30.09,NNW,333,3.5,3.5,62,0.00,CLR,,0.04,WeatherDisplay:10.37,2013-02-04 00:45:00,
2013-02-03 18:50:00,26.2,15.0,30.09,NNW,329,3.5,3.5,62,0.00,CLR,,0.04,WeatherDisplay:10.37,2013-02-04 00:50:00,
2013-02-03 18:55:00,26.4,15.2,30.09,NNW,329,3.5,3.5,62,0.00,CLR,,0.04,WeatherDisplay:10.37,2013-02-04 00:55:00,
2013-02-03 19:00:00,26.2,15.0,30.09,NNW,329,0.0,0.0,62,0.00,CLR,,0.04,WeatherDisplay:10.37,2013-02-04 01:00:00,
2013-02-03 19:05:00,26.1,14.8,30.09,NNW,329,2.3,0.0,62,0.00,CLR,,0.04,WeatherDisplay:10.37,2013-02-04 01:05:00,
2013-02-03 19:10:00,25.9,14.6,30.09,SE,144,2.7,2.7,62,0.00,CLR,,0.04,WeatherDisplay:10.37,2013-02-04 01:10:00,
2013-02-03 19:15:00,25.2,14.3,30.09,ESE,111,3.5,0.0,63,0.00,CLR,,0.04,WeatherDisplay:10.37,2013-02-04 01:15:00,
2013-02-03 19:20:00,24.1,13.3,30.06,SE,126,0.0,0.0,63,0.00,CLR,,0.04,WeatherDisplay:10.37,2013-02-04 01:20:00,
2013-02-03 19:25:00,23.9,13.1,30.06,SSE,162,0.0,0.0,63,0.00,CLR,,0.04,WeatherDisplay:10.37,2013-02-04 01:25:00,
2013-02-03 19:30:00,23.9,13.1,30.06,SSE,162,0.0,0.0,63,0.00,CLR,,0.04,WeatherDisplay:10.37,2013-02-04 01:30:00,
2013-02-03 19:35:00,24.3,13.5,30.09,SSE,162,2.3,0.0,63,0.00,CLR,,0.04,WeatherDisplay:10.37,2013-02-04 01:35:00,
2013-02-03 19:40:00,24.4,13.6,30.09,SSE,159,3.5,0.0,63,0.00,CLR,,0.04,WeatherDisplay:10.37,2013-02-04 01:40:00,
2013-02-03 19:45:00,24.6,13.8,30.09,SSE,160,3.5,3.5,63,0.00,CLR,,0.04,WeatherDisplay:10.37,2013-02-04 01:45:00,
2013-02-03 19:50:00,24.6,13.8,30.09,SSE,161,3.5,3.5,63,0.00,CLR,,0.04,WeatherDisplay:10.37,2013-02-04 01:50:00,
2013-02-03 19:55:00,24.4,13.6,30.09,SSE,149,3.6,0.0,63,0.00,CLR,,0.04,WeatherDisplay:10.37,2013-02-04 01:55:00,
2013-02-03 20:00:00,24.4,13.6,30.09,SSE,149,2.7,2.7,63,0.00,CLR,,0.04,WeatherDisplay:10.37,2013-02-04 02:00:00,
2013-02-03 20:05:00,24.4,13.6,30.06,SSE,149,4.6,4.6,63,0.00,CLR,,0.04,WeatherDisplay:10.37,2013-02-04 02:05:00,
2013-02-03 20:10:00,24.4,13.6,30.06,SE,130,4.1,4.1,63,0.00,CLR,,0.04,WeatherDisplay:10.37,2013-02-04 02:10:00,
2013-02-03 20:15:00,24.4,13.6,30.06,SSE,159,4.6,4.6,63,0.00,CLR,,0.04,WeatherDisplay:10.37,2013-02-04 02:15:00,
2013-02-03 20:20:00,24.8,14.0,30.06,SSE,157,3.5,3.5,63,0.00,CLR,,0.04,WeatherDisplay:10.37,2013-02-04 02:20:00,
2013-02-03 20:25:00,25.0,14.2,30.06,SE,126,4.6,4.6,63,0.00,CLR,,0.04,WeatherDisplay:10.37,2013-02-04 02:25:00,
2013-02-03 20:30:00,25.2,14.3,30.06,SE,136,5.8,5.8,63,0.00,CLR,,0.04,WeatherDisplay:10.37,2013-02-04 02:30:00,
2013-02-03 20:35:00,25.2,14.3,30.06,SSE,156,4.6,4.6,63,0.00,CLR,,0.04,WeatherDisplay:10.37,2013-02-04 02:35:00,
2013-02-03 20:40:00,25.3,14.5,30.06,SSE,154,5.8,5.8,63,0.00,CLR,,0.04,WeatherDisplay:10.37,2013-02-04 02:40:00,
2013-02-03 20:45:00,25.3,14.5,30.06,SE,135,5.8,5.8,63,0.00,CLR,,0.04,WeatherDisplay:10.37,2013-02-04 02:45:00,
2013-02-03 20:50:00,25.3,14.5,30.06,SSE,157,4.6,4.6,63,0.00,CLR,,0.04,WeatherDisplay:10.37,2013-02-04 02:50:00,
2013-02-03 20:55:00,25.3,14.5,30.06,SSE,161,4.6,4.6,63,0.00,CLR,,0.04,WeatherDisplay:10.37,2013-02-04 02:55:00,
2013-02-03 21:00:00,25.3,14.5,30.06,SSE,164,5.8,5.8,63,0.00,CLR,,0.04,WeatherDisplay:10.37,2013-02-04 03:00:00,
2013-02-03 21:05:00,25.3,14.5,30.06,South,181,4.6,4.6,63,0.00,CLR,,0.04,WeatherDisplay:10.37,2013-02-04 03:05:00,
2013-02-03 21:10:00,25.2,14.3,30.06,South,172,4.6,4.6,63,0.00,CLR,,0.04,WeatherDisplay:10.37,2013-02-04 03:10:00,
2013-02-03 21:15:00,25.2,14.3,30.06,SSE,158,5.8,5.8,63,0.00,CLR,,0.04,WeatherDisplay:10.37,2013-02-04 03:15:00,
2013-02-03 21:20:00,25.2,14.3,30.06,South,175,4.6,4.6,63,0.00,CLR,,0.04,WeatherDisplay:10.37,2013-02-04 03:20:00,
2013-02-03 21:25:00,25.3,14.5,30.06,ESE,120,4.6,4.6,63,0.00,CLR,,0.04,WeatherDisplay:10.37,2013-02-04 03:25:00,
2013-02-03 21:30:00,25.2,14.3,30.06,SE,140,3.6,3.6,63,0.00,CLR,,0.04,WeatherDisplay:10.37,2013-02-04 03:30:00,
2013-02-03 21:35:00,25.2,14.3,30.03,SE,135,3.6,3.6,63,0.00,CLR,,0.04,WeatherDisplay:10.37,2013-02-04 03:35:00,
2013-02-03 21:40:00,25.0,14.2,30.03,SSE,162,4.6,4.6,63,0.00,CLR,,0.04,WeatherDisplay:10.37,2013-02-04 03:40:00,
2013-02-03 21:45:00,25.0,14.2,30.03,South,176,5.8,5.8,63,0.00,CLR,,0.04,WeatherDisplay:10.37,2013-02-04 03:45:00,
2013-02-03 21:50:00,25.0,14.2,30.03,SSE,158,5.8,5.8,63,0.00,CLR,,0.04,WeatherDisplay:10.37,2013-02-04 03:50:00,
2013-02-03 21:55:00,25.0,14.2,30.03,SSE,150,5.8,5.8,63,0.00,CLR,,0.04,WeatherDisplay:10.37,2013-02-04 03:55:00,
2013-02-03 22:00:00,25.0,14.2,30.03,SSE,153,5.8,5.8,63,0.00,CLR,,0.04,WeatherDisplay:10.37,2013-02-04 04:00:00,
2013-02-03 22:05:00,25.0,14.2,30.03,SE,146,5.0,5.0,63,0.00,CLR,,0.04,WeatherDisplay:10.37,2013-02-04 04:05:00,
2013-02-03 22:10:00,25.0,14.2,30.03,ESE,123,5.8,5.8,63,0.00,CLR,,0.04,WeatherDisplay:10.37,2013-02-04 04:10:00,
2013-02-03 22:15:00,24.8,14.0,30.03,South,187,4.6,4.6,63,0.00,CLR,,0.04,WeatherDisplay:10.37,2013-02-04 04:15:00,
2013-02-03 22:20:00,24.8,14.0,30.03,SE,138,4.6,4.6,63,0.00,CLR,,0.04,WeatherDisplay:10.37,2013-02-04 04:20:00,
2013-02-03 22:25:00,24.8,14.0,30.03,SE,144,5.8,5.8,63,0.00,CLR,,0.04,WeatherDisplay:10.37,2013-02-04 04:25:00,
2013-02-03 22:30:00,24.8,14.0,30.03,SSE,150,8.1,8.1,63,0.00,CLR,,0.04,WeatherDisplay:10.37,2013-02-04 04:30:00,
2013-02-03 22:35:00,24.8,14.0,30.00,SSE,147,5.8,5.8,63,0.00,CLR,,0.04,WeatherDisplay:10.37,2013-02-04 04:35:00,
2013-02-03 22:40:00,24.8,14.0,30.00,SE,129,5.4,5.4,63,0.00,CLR,,0.04,WeatherDisplay:10.37,2013-02-04 04:40:00,
2013-02-03 22:45:00,24.8,14.0,30.00,South,186,5.8,5.8,63,0.00,CLR,,0.04,WeatherDisplay:10.37,2013-02-04 04:45:00,
2013-02-03 22:50:00,24.6,13.8,30.00,SSE,156,4.6,4.6,63,0.00,CLR,,0.04,WeatherDisplay:10.37,2013-02-04 04:50:00,
2013-02-03 22:55:00,24.4,13.6,30.00,SSE,162,4.6,4.6,63,0.00,CLR,,0.04,WeatherDisplay:10.37,2013-02-04 04:55:00,
2013-02-03 23:00:00,24.4,13.6,30.00,SSE,162,5.8,5.8,63,0.00,CLR,,0.04,WeatherDisplay:10.37,2013-02-04 05:00:00,
2013-02-03 23:02:00,24.4,13.6,30.00,SE,127,5.8,5.8,63,0.00,CLR,,0.04,WeatherDisplay:10.37,2013-02-04 05:02:00,
2013-02-03 23:03:00,24.4,13.6,30.00,SE,138,5.8,5.8,63,0.00,CLR,,0.04,WeatherDisplay:10.37,2013-02-04 05:03:00,
2013-02-03 23:08:00,24.4,13.6,30.00,SSW,193,5.8,5.8,63,0.00,CLR,,0.04,WeatherDisplay:10.37,2013-02-04 05:08:00,
2013-02-03 23:13:00,24.3,13.5,30.00,ESE,116,5.8,5.8,63,0.00,CLR,,0.04,WeatherDisplay:10.37,2013-02-04 05:13:00,
2013-02-03 23:18:00,24.1,13.3,30.00,SE,146,4.6,4.6,63,0.00,CLR,,0.04,WeatherDisplay:10.37,2013-02-04 05:18:00,
2013-02-03 23:23:00,23.9,13.1,30.00,SE,127,5.8,5.8,63,0.00,CLR,,0.04,WeatherDisplay:10.37,2013-02-04 05:23:00,
2013-02-03 23:28:00,23.7,13.0,30.00,ESE,120,5.9,5.9,63,0.00,CLR,,0.04,WeatherDisplay:10.37,2013-02-04 05:28:00,
2013-02-03 23:33:00,23.7,13.0,30.00,SSE,165,4.6,4.6,63,0.00,CLR,,0.04,WeatherDisplay:10.37,2013-02-04 05:33:00,
2013-02-03 23:38:00,23.7,13.0,30.00,SE,146,3.5,3.5,63,0.00,CLR,,0.04,WeatherDisplay:10.37,2013-02-04 05:38:00,
2013-02-03 23:43:00,23.7,13.0,30.00,SE,139,5.8,5.8,63,0.00,CLR,,0.04,WeatherDisplay:10.37,2013-02-04 05:43:00,
2013-02-03 23:48:00,23.7,13.0,29.97,ESE,106,6.9,6.9,63,0.00,CLR,,0.04,WeatherDisplay:10.37,2013-02-04 05:48:00,
2013-02-03 23:53:00,23.7,13.0,29.97,SSE,158,5.8,5.8,63,0.00,CLR,,0.04,WeatherDisplay:10.37,2013-02-04 05:53:00,
2013-02-03 23:58:00,23.5,12.8,29.97,ESE,120,5.8,5.8,63,0.00,CLR,,0.04,WeatherDisplay:10.37,2013-02-04 05:58:00,